Terminal Aerodrome Forecast
Issued by NWS

Home | Current Version | Previous Version | Text Only | Print | Product List | Glossary On
Versions: 1 2 3 4 5 6 7 8 9 10 11 12 13 14 15
456
FTUS42 KTBW 241732
TAFPGD
TAF
KPGD 241732Z 2418/2518 20005KT P6SM VCTS BKN040CB
     FM250000 25004KT P6SM SCT030 BKN040
     FM250700 VRB03KT P6SM FEW025 SCT060=

USA.gov is the U.S. government's official web portal to all federal, state and local government web resources and services.